sensor_id;sensor_type;location;lat;lon;timestamp;pressure;altitude;pressure_sealevel;temperature;humidity
13050;BME280;6591;51.446;5.404;2023-08-06T00:01:11;100031.78;;;21.95;54.32
13050;BME280;6591;51.446;5.404;2023-08-06T00:03:39;100033.47;;;21.96;54.11
13050;BME280;6591;51.446;5.404;2023-08-06T00:06:07;100029.22;;;21.94;54.37
13050;BME280;6591;51.446;5.404;2023-08-06T00:08:34;100031.03;;;21.93;54.10
13050;BME280;6591;51.446;5.404;2023-08-06T00:11:02;100037.31;;;21.94;54.82
13050;BME280;6591;51.446;5.404;2023-08-06T00:13:29;100037.47;;;21.92;54.69
13050;BME280;6591;51.446;5.404;2023-08-06T00:16:12;100030.38;;;21.91;54.81
13050;BME280;6591;51.446;5.404;2023-08-06T00:18:41;100034.31;;;21.97;54.78
13050;BME280;6591;51.446;5.404;2023-08-06T00:21:08;100032.47;;;21.98;54.83
13050;BME280;6591;51.446;5.404;2023-08-06T00:23:35;100027.56;;;22.01;54.58
13050;BME280;6591;51.446;5.404;2023-08-06T00:26:03;100019.59;;;22.00;54.26
13050;BME280;6591;51.446;5.404;2023-08-06T00:28:30;100013.88;;;22.03;54.67
13050;BME280;6591;51.446;5.404;2023-08-06T00:30:57;100024.72;;;22.03;54.77
13050;BME280;6591;51.446;5.404;2023-08-06T00:33:25;100020.97;;;22.04;54.47
13050;BME280;6591;51.446;5.404;2023-08-06T00:35:52;100021.81;;;22.04;54.76
13050;BME280;6591;51.446;5.404;2023-08-06T00:38:20;100023.53;;;22.05;54.16
13050;BME280;6591;51.446;5.404;2023-08-06T00:40:47;100024.38;;;22.06;54.59
13050;BME280;6591;51.446;5.404;2023-08-06T00:43:14;100023.53;;;22.05;54.81
13050;BME280;6591;51.446;5.404;2023-08-06T00:45:43;100023.38;;;22.07;54.75
13050;BME280;6591;51.446;5.404;2023-08-06T00:48:10;100027.78;;;22.08;54.39
13050;BME280;6591;51.446;5.404;2023-08-06T00:50:37;100016.94;;;22.08;54.78
13050;BME280;6591;51.446;5.404;2023-08-06T00:53:05;100012.56;;;22.07;54.86
13050;BME280;6591;51.446;5.404;2023-08-06T00:55:33;100021.31;;;22.09;54.71
13050;BME280;6591;51.446;5.404;2023-08-06T00:58:02;100019.66;;;22.08;55.05
13050;BME280;6591;51.446;5.404;2023-08-06T01:00:30;100016.09;;;22.07;54.64
13050;BME280;6591;51.446;5.404;2023-08-06T01:02:58;100010.84;;;22.06;54.34
13050;BME280;6591;51.446;5.404;2023-08-06T01:05:25;100015.09;;;22.08;54.45
13050;BME280;6591;51.446;5.404;2023-08-06T01:08:24;100013.19;;;22.01;54.74
13050;BME280;6591;51.446;5.404;2023-08-06T01:14:26;100006.59;;;21.95;55.00
13050;BME280;6591;51.446;5.404;2023-08-06T01:16:55;100012.19;;;22.02;55.11
13050;BME280;6591;51.446;5.404;2023-08-06T01:19:25;100001.69;;;21.98;55.07
13050;BME280;6591;51.446;5.404;2023-08-06T01:21:53;100007.63;;;22.02;54.97
13050;BME280;6591;51.446;5.404;2023-08-06T01:24:20;100008.78;;;22.00;54.88
13050;BME280;6591;51.446;5.404;2023-08-06T01:27:38;100017.41;;;21.95;55.18
13050;BME280;6591;51.446;5.404;2023-08-06T01:30:17;100009.78;;;21.98;54.74
13050;BME280;6591;51.446;5.404;2023-08-06T01:32:49;100007.09;;;21.98;54.82
13050;BME280;6591;51.446;5.404;2023-08-06T01:35:19;100007.09;;;21.98;54.92
13050;BME280;6591;51.446;5.404;2023-08-06T01:37:48;100003.72;;;21.96;54.66
13050;BME280;6591;51.446;5.404;2023-08-06T01:40:15;100001.69;;;21.98;55.02
13050;BME280;6591;51.446;5.404;2023-08-06T01:42:43;100004.56;;;21.97;54.62
13050;BME280;6591;51.446;5.404;2023-08-06T01:45:10;100003.03;;;21.94;55.15
13050;BME280;6591;51.446;5.404;2023-08-06T01:47:37;100002.34;;;21.92;55.08
13050;BME280;6591;51.446;5.404;2023-08-06T01:50:05;99998.94;;;21.90;55.10
13050;BME280;6591;51.446;5.404;2023-08-06T01:52:32;99996.56;;;21.87;55.13
13050;BME280;6591;51.446;5.404;2023-08-06T01:54:59;100001.97;;;21.87;55.02
13050;BME280;6591;51.446;5.404;2023-08-06T01:57:27;99999.28;;;21.87;55.29
13050;BME280;6591;51.446;5.404;2023-08-06T01:59:54;99990.47;;;21.85;55.30
13050;BME280;6591;51.446;5.404;2023-08-06T02:02:21;99997.72;;;21.85;55.31
13050;BME280;6591;51.446;5.404;2023-08-06T02:04:48;100008.38;;;21.86;55.09
13050;BME280;6591;51.446;5.404;2023-08-06T02:07:15;100004.69;;;21.87;55.36
13050;BME280;6591;51.446;5.404;2023-08-06T02:09:43;99997.56;;;21.86;55.32
13050;BME280;6591;51.446;5.404;2023-08-06T02:12:10;100001.78;;;21.89;55.31
13050;BME280;6591;51.446;5.404;2023-08-06T02:14:37;100004.69;;;21.87;54.83
13050;BME280;6591;51.446;5.404;2023-08-06T02:17:05;100013.16;;;21.92;55.22
13050;BME280;6591;51.446;5.404;2023-08-06T02:19:33;99996.91;;;21.92;55.35
13050;BME280;6591;51.446;5.404;2023-08-06T02:22:00;100000.31;;;21.94;55.42
13050;BME280;6591;51.446;5.404;2023-08-06T02:24:27;99995.88;;;21.93;55.49
13050;BME280;6591;51.446;5.404;2023-08-06T02:26:54;99999.47;;;21.94;55.42
13050;BME280;6591;51.446;5.404;2023-08-06T02:29:23;99998.31;;;21.96;55.34
13050;BME280;6591;51.446;5.404;2023-08-06T02:31:50;99992.34;;;21.93;55.37
13050;BME280;6591;51.446;5.404;2023-08-06T02:34:17;100010.97;;;21.96;55.34
13050;BME280;6591;51.446;5.404;2023-08-06T02:36:46;99999.47;;;21.94;55.58
13050;BME280;6591;51.446;5.404;2023-08-06T02:39:13;99999.47;;;21.94;55.43
13050;BME280;6591;51.446;5.404;2023-08-06T02:41:40;99996.78;;;21.94;55.15
13050;BME280;6591;51.446;5.404;2023-08-06T02:44:07;99998.59;;;21.93;55.65
13050;BME280;6591;51.446;5.404;2023-08-06T02:46:34;100000.31;;;21.94;55.38
13050;BME280;6591;51.446;5.404;2023-08-06T02:49:02;100004.88;;;21.94;55.21
13050;BME280;6591;51.446;5.404;2023-08-06T02:51:29;99995.75;;;21.95;55.40
13050;BME280;6591;51.446;5.404;2023-08-06T02:53:56;99994.06;;;21.94;55.16
13050;BME280;6591;51.446;5.404;2023-08-06T02:56:24;99998.31;;;21.96;55.35
13050;BME280;6591;51.446;5.404;2023-08-06T02:59:06;99989.50;;;21.94;55.53
13050;BME280;6591;51.446;5.404;2023-08-06T03:01:56;99989.50;;;21.94;55.14
13050;BME280;6591;51.446;5.404;2023-08-06T03:04:31;99985.66;;;21.97;55.29
13050;BME280;6591;51.446;5.404;2023-08-06T03:06:58;99989.19;;;21.98;55.60
13050;BME280;6591;51.446;5.404;2023-08-06T03:09:34;99980.06;;;21.98;55.83
13050;BME280;6591;51.446;5.404;2023-08-06T03:12:02;99987.16;;;22.00;55.67
13050;BME280;6591;51.446;5.404;2023-08-06T03:14:29;99983.44;;;22.01;55.62
13050;BME280;6591;51.446;5.404;2023-08-06T03:16:57;99980.06;;;21.98;55.75
13050;BME280;6591;51.446;5.404;2023-08-06T03:19:24;99989.88;;;22.00;55.42
13050;BME280;6591;51.446;5.404;2023-08-06T03:21:53;99988.16;;;21.98;55.39
13050;BME280;6591;51.446;5.404;2023-08-06T03:24:22;99985.81;;;21.95;55.54
13050;BME280;6591;51.446;5.404;2023-08-06T03:26:49;99989.19;;;21.98;55.80
13050;BME280;6591;51.446;5.404;2023-08-06T03:29:16;99992.75;;;21.98;55.60
13050;BME280;6591;51.446;5.404;2023-08-06T03:31:46;99996.47;;;21.97;55.80
13050;BME280;6591;51.446;5.404;2023-08-06T03:34:16;99994.06;;;21.94;55.53
13050;BME280;6591;51.446;5.404;2023-08-06T03:36:44;99996.63;;;21.95;55.83
13050;BME280;6591;51.446;5.404;2023-08-06T03:39:11;99988.66;;;21.94;56.10
13050;BME280;6591;51.446;5.404;2023-08-06T03:41:40;99993.19;;;21.93;55.93
13050;BME280;6591;51.446;5.404;2023-08-06T03:44:07;99992.34;;;21.93;55.91
13050;BME280;6591;51.446;5.404;2023-08-06T03:46:34;99989.97;;;21.90;55.74
13050;BME280;6591;51.446;5.404;2023-08-06T03:49:04;99998.78;;;21.92;55.64
13050;BME280;6591;51.446;5.404;2023-08-06T03:51:32;99995.22;;;21.91;56.06
13050;BME280;6591;51.446;5.404;2023-08-06T03:54:00;100000.78;;;21.90;55.85
13050;BME280;6591;51.446;5.404;2023-08-06T03:56:28;100001.63;;;21.90;55.78
13050;BME280;6591;51.446;5.404;2023-08-06T03:58:55;99998.09;;;21.90;55.74
13050;BME280;6591;51.446;5.404;2023-08-06T04:01:23;99999.09;;;21.89;55.63
13050;BME280;6591;51.446;5.404;2023-08-06T04:03:52;100005.34;;;21.89;55.81
13050;BME280;6591;51.446;5.404;2023-08-06T04:06:19;100003.66;;;21.88;55.96
13050;BME280;6591;51.446;5.404;2023-08-06T04:08:46;100008.03;;;21.89;56.01
13050;BME280;6591;51.446;5.404;2023-08-06T04:11:13;100009.22;;;21.87;55.88
13050;BME280;6591;51.446;5.404;2023-08-06T04:13:44;100006.69;;;21.85;55.69
13050;BME280;6591;51.446;5.404;2023-08-06T04:16:12;100014.63;;;21.87;56.14
13050;BME280;6591;51.446;5.404;2023-08-06T04:18:41;100009.53;;;21.84;55.92
13050;BME280;6591;51.446;5.404;2023-08-06T04:21:08;100013.78;;;21.86;55.94
13050;BME280;6591;51.446;5.404;2023-08-06T04:23:35;100013.09;;;21.84;56.00
13050;BME280;6591;51.446;5.404;2023-08-06T04:26:06;100012.44;;;21.82;56.41
13050;BME280;6591;51.446;5.404;2023-08-06T04:28:35;100013.78;;;21.86;55.94
13050;BME280;6591;51.446;5.404;2023-08-06T04:31:02;100018.19;;;21.87;55.92
13050;BME280;6591;51.446;5.404;2023-08-06T04:33:32;100019.88;;;21.88;56.22
13050;BME280;6591;51.446;5.404;2023-08-06T04:36:04;100026.31;;;21.87;56.24
13050;BME280;6591;51.446;5.404;2023-08-06T04:38:33;100026.31;;;21.87;56.15
13050;BME280;6591;51.446;5.404;2023-08-06T04:41:02;100025.28;;;21.88;56.01
13050;BME280;6591;51.446;5.404;2023-08-06T04:43:32;100026.13;;;21.89;56.59
13050;BME280;6591;51.446;5.404;2023-08-06T04:46:00;100021.41;;;21.91;56.55
13050;BME280;6591;51.446;5.404;2023-08-06T04:48:27;100029.38;;;21.92;56.21
13050;BME280;6591;51.446;5.404;2023-08-06T04:50:54;100029.06;;;21.95;56.72
13050;BME280;6591;51.446;5.404;2023-08-06T04:53:21;100027.72;;;22.00;56.34
13050;BME280;6591;51.446;5.404;2023-08-06T04:55:49;100039.22;;;22.02;56.50
13050;BME280;6591;51.446;5.404;2023-08-06T04:58:16;100037.88;;;22.06;56.52
13050;BME280;6591;51.446;5.404;2023-08-06T05:00:43;100041.09;;;22.09;56.75
13050;BME280;6591;51.446;5.404;2023-08-06T05:03:10;100039.94;;;22.12;56.76
13050;BME280;6591;51.446;5.404;2023-08-06T05:05:40;100042.16;;;22.16;57.03
13050;BME280;6591;51.446;5.404;2023-08-06T05:08:14;100043.84;;;22.17;56.37
13050;BME280;6591;51.446;5.404;2023-08-06T05:10:45;100042.34;;;22.23;56.76
13050;BME280;6591;51.446;5.404;2023-08-06T05:13:12;100045.41;;;22.28;56.85
13050;BME280;6591;51.446;5.404;2023-08-06T05:15:41;100055.59;;;22.34;56.78
13050;BME280;6591;51.446;5.404;2023-08-06T05:18:10;100055.94;;;22.39;56.30
13050;BME280;6591;51.446;5.404;2023-08-06T05:20:41;100055.44;;;22.44;56.68
13050;BME280;6591;51.446;5.404;2023-08-06T05:23:09;100059.16;;;22.51;56.65
13050;BME280;6591;51.446;5.404;2023-08-06T05:25:38;100060.53;;;22.55;56.83
13050;BME280;6591;51.446;5.404;2023-08-06T05:28:05;100066.31;;;22.60;56.72
13050;BME280;6591;51.446;5.404;2023-08-06T05:30:32;100065.66;;;22.66;56.54
13050;BME280;6591;51.446;5.404;2023-08-06T05:33:00;100062.13;;;22.73;56.63
13050;BME280;6591;51.446;5.404;2023-08-06T05:35:27;100076.34;;;22.84;56.53
13050;BME280;6591;51.446;5.404;2023-08-06T05:37:54;100081.78;;;22.92;56.48
13050;BME280;6591;51.446;5.404;2023-08-06T05:40:21;100081.78;;;23.00;56.43
13050;BME280;6591;51.446;5.404;2023-08-06T05:42:48;100085.53;;;23.07;56.76
13050;BME280;6591;51.446;5.404;2023-08-06T05:45:16;100091.94;;;23.14;56.39
13050;BME280;6591;51.446;5.404;2023-08-06T05:47:43;100096.53;;;23.21;56.79
13050;BME280;6591;51.446;5.404;2023-08-06T05:50:10;100090.44;;;23.28;56.60
13050;BME280;6591;51.446;5.404;2023-08-06T05:52:38;100100.25;;;23.37;55.97
13050;BME280;6591;51.446;5.404;2023-08-06T05:55:06;100099.75;;;23.41;56.30
13050;BME280;6591;51.446;5.404;2023-08-06T05:57:33;100098.75;;;23.50;56.13
13050;BME280;6591;51.446;5.404;2023-08-06T06:00:01;100104.50;;;23.55;55.83
13050;BME280;6591;51.446;5.404;2023-08-06T06:02:38;100102.13;;;23.60;55.97
13050;BME280;6591;51.446;5.404;2023-08-06T06:05:05;100119.75;;;23.64;55.64
13050;BME280;6591;51.446;5.404;2023-08-06T06:07:35;100117.69;;;23.67;55.51
13050;BME280;6591;51.446;5.404;2023-08-06T06:10:03;100122.97;;;23.68;55.10
13050;BME280;6591;51.446;5.404;2023-08-06T06:12:30;100122.13;;;23.68;55.11
13050;BME280;6591;51.446;5.404;2023-08-06T06:14:59;100126.69;;;23.67;55.14
13050;BME280;6591;51.446;5.404;2023-08-06T06:17:28;100135.00;;;23.66;54.77
13050;BME280;6591;51.446;5.404;2023-08-06T06:19:56;100140.75;;;23.62;54.80
13050;BME280;6591;51.446;5.404;2023-08-06T06:22:23;100136.69;;;23.58;54.81
13050;BME280;6591;51.446;5.404;2023-08-06T06:24:50;100149.22;;;23.51;54.82
13050;BME280;6591;51.446;5.404;2023-08-06T06:27:18;100155.66;;;23.42;54.50
13050;BME280;6591;51.446;5.404;2023-08-06T06:29:45;100158.84;;;23.30;54.85
13050;BME280;6591;51.446;5.404;2023-08-06T06:32:12;100147.81;;;23.15;54.56
13050;BME280;6591;51.446;5.404;2023-08-06T06:34:39;100156.28;;;23.04;54.91
13050;BME280;6591;51.446;5.404;2023-08-06T06:37:06;100162.69;;;22.95;55.07
13050;BME280;6591;51.446;5.404;2023-08-06T06:39:33;100172.81;;;22.85;55.00
13050;BME280;6591;51.446;5.404;2023-08-06T06:42:00;100165.31;;;22.70;55.01
13050;BME280;6591;51.446;5.404;2023-08-06T06:44:35;100189.13;;;22.59;55.05
13050;BME280;6591;51.446;5.404;2023-08-06T06:47:03;100194.78;;;22.39;54.99
13050;BME280;6591;51.446;5.404;2023-08-06T06:49:30;100174.84;;;22.15;54.77
13050;BME280;6591;51.446;5.404;2023-08-06T06:51:57;100187.84;;;21.93;54.74
13050;BME280;6591;51.446;5.404;2023-08-06T06:54:24;100197.50;;;21.70;54.80
13050;BME280;6591;51.446;5.404;2023-08-06T06:56:52;100197.81;;;21.49;55.15
13050;BME280;6591;51.446;5.404;2023-08-06T06:59:19;100213.34;;;21.30;55.33
13050;BME280;6591;51.446;5.404;2023-08-06T07:01:46;100206.75;;;21.14;55.53
13050;BME280;6591;51.446;5.404;2023-08-06T07:04:13;100222.47;;;21.01;55.81
13050;BME280;6591;51.446;5.404;2023-08-06T07:06:40;100217.25;;;20.90;56.30
13050;BME280;6591;51.446;5.404;2023-08-06T07:09:07;100231.66;;;20.81;55.95
13050;BME280;6591;51.446;5.404;2023-08-06T07:11:34;100237.81;;;20.73;56.20
13050;BME280;6591;51.446;5.404;2023-08-06T07:14:02;100239.41;;;20.66;56.20
13050;BME280;6591;51.446;5.404;2023-08-06T07:16:29;100248.25;;;20.59;56.54
13050;BME280;6591;51.446;5.404;2023-08-06T07:18:56;100247.84;;;20.54;56.58
13050;BME280;6591;51.446;5.404;2023-08-06T07:21:23;100242.03;;;20.49;56.76
13050;BME280;6591;51.446;5.404;2023-08-06T07:23:50;100247.75;;;20.46;57.31
13050;BME280;6591;51.446;5.404;2023-08-06T07:26:18;100245.19;;;20.44;57.26
13050;BME280;6591;51.446;5.404;2023-08-06T07:28:45;100258.81;;;20.43;57.52
13050;BME280;6591;51.446;5.404;2023-08-06T07:31:12;100271.59;;;20.41;58.00
13050;BME280;6591;51.446;5.404;2023-08-06T07:33:40;100273.28;;;20.42;57.98
13050;BME280;6591;51.446;5.404;2023-08-06T07:36:12;100276.16;;;20.40;57.90
13050;BME280;6591;51.446;5.404;2023-08-06T07:38:40;100278.00;;;20.40;58.10
13050;BME280;6591;51.446;5.404;2023-08-06T07:41:08;100281.53;;;20.40;58.49
13050;BME280;6591;51.446;5.404;2023-08-06T07:43:36;100278.97;;;20.39;58.53
13050;BME280;6591;51.446;5.404;2023-08-06T07:46:03;100287.06;;;20.39;58.66
13050;BME280;6591;51.446;5.404;2023-08-06T07:48:31;100288.63;;;20.41;58.71
13050;BME280;6591;51.446;5.404;2023-08-06T07:50:58;100282.09;;;20.44;59.12
13050;BME280;6591;51.446;5.404;2023-08-06T07:53:26;100292.88;;;20.44;59.04
13050;BME280;6591;51.446;5.404;2023-08-06T07:55:59;100288.88;;;20.48;58.98
13050;BME280;6591;51.446;5.404;2023-08-06T07:58:29;100305.06;;;20.48;58.94
13050;BME280;6591;51.446;5.404;2023-08-06T08:00:56;100297.69;;;20.50;59.10
13050;BME280;6591;51.446;5.404;2023-08-06T08:03:23;100302.66;;;20.54;59.43
13050;BME280;6591;51.446;5.404;2023-08-06T08:05:55;100296.09;;;20.57;59.35
13050;BME280;6591;51.446;5.404;2023-08-06T08:08:25;100297.66;;;20.59;59.36
13050;BME280;6591;51.446;5.404;2023-08-06T08:10:54;100295.38;;;20.64;59.41
13050;BME280;6591;51.446;5.404;2023-08-06T08:13:22;100311.13;;;20.69;59.55
13050;BME280;6591;51.446;5.404;2023-08-06T08:15:49;100308.81;;;20.74;59.66
13050;BME280;6591;51.446;5.404;2023-08-06T08:18:16;100304.81;;;20.78;59.59
13050;BME280;6591;51.446;5.404;2023-08-06T08:20:44;100299.81;;;20.83;59.63
13050;BME280;6591;51.446;5.404;2023-08-06T08:23:11;100308.06;;;20.91;59.75
13050;BME280;6591;51.446;5.404;2023-08-06T08:25:38;100309.16;;;20.98;59.69
13050;BME280;6591;51.446;5.404;2023-08-06T08:28:05;100311.88;;;20.98;59.65
13050;BME280;6591;51.446;5.404;2023-08-06T08:30:32;100325.06;;;21.01;59.69
13050;BME280;6591;51.446;5.404;2023-08-06T08:33:00;100327.75;;;21.01;59.39
13050;BME280;6591;51.446;5.404;2023-08-06T08:35:27;100331.16;;;21.03;59.44
13050;BME280;6591;51.446;5.404;2023-08-06T08:37:54;100336.84;;;21.00;58.97
13050;BME280;6591;51.446;5.404;2023-08-06T08:40:31;100331.03;;;20.95;59.23
13050;BME280;6591;51.446;5.404;2023-08-06T08:43:00;100338.28;;;20.95;59.11
13050;BME280;6591;51.446;5.404;2023-08-06T08:45:29;100329.50;;;20.93;59.04
13050;BME280;6591;51.446;5.404;2023-08-06T08:47:58;100344.13;;;20.90;58.90
13050;BME280;6591;51.446;5.404;2023-08-06T08:50:25;100335.34;;;20.88;59.51
13050;BME280;6591;51.446;5.404;2023-08-06T08:52:52;100339.19;;;20.86;59.29
13050;BME280;6591;51.446;5.404;2023-08-06T08:55:22;100344.03;;;20.82;59.41
13050;BME280;6591;51.446;5.404;2023-08-06T08:57:50;100348.56;;;20.82;58.99
13050;BME280;6591;51.446;5.404;2023-08-06T09:00:18;100350.69;;;20.78;59.17
13050;BME280;6591;51.446;5.404;2023-08-06T09:02:46;100356.41;;;20.75;59.36
13050;BME280;6591;51.446;5.404;2023-08-06T09:05:15;100359.41;;;20.72;59.27
13050;BME280;6591;51.446;5.404;2023-08-06T09:07:48;100353.59;;;20.67;59.49
13050;BME280;6591;51.446;5.404;2023-08-06T09:10:17;100366.78;;;20.70;59.56
13050;BME280;6591;51.446;5.404;2023-08-06T09:12:49;100369.78;;;20.67;59.21
13050;BME280;6591;51.446;5.404;2023-08-06T09:15:18;100378.56;;;20.69;59.60
13050;BME280;6591;51.446;5.404;2023-08-06T09:17:45;100382.25;;;20.68;59.30
13050;BME280;6591;51.446;5.404;2023-08-06T09:20:14;100380.16;;;20.71;59.61
13050;BME280;6591;51.446;5.404;2023-08-06T09:22:41;100382.84;;;20.71;59.66
13050;BME280;6591;51.446;5.404;2023-08-06T09:25:09;100392.47;;;20.74;59.79
13050;BME280;6591;51.446;5.404;2023-08-06T09:27:38;100387.09;;;20.74;59.83
13050;BME280;6591;51.446;5.404;2023-08-06T09:30:07;100395.03;;;20.76;59.53
13050;BME280;6591;51.446;5.404;2023-08-06T09:32:55;100396.03;;;20.75;59.59
13050;BME280;6591;51.446;5.404;2023-08-06T09:35:22;100404.28;;;20.83;59.39
13050;BME280;6591;51.446;5.404;2023-08-06T09:37:49;100406.97;;;20.83;59.57
13050;BME280;6591;51.446;5.404;2023-08-06T09:40:32;100413.34;;;20.82;59.75
13050;BME280;6591;51.446;5.404;2023-08-06T09:42:59;100410.94;;;20.88;59.62
13050;BME280;6591;51.446;5.404;2023-08-06T09:45:40;100417.47;;;20.86;59.78
13050;BME280;6591;51.446;5.404;2023-08-06T09:48:09;100412.59;;;20.89;59.93
13050;BME280;6591;51.446;5.404;2023-08-06T09:50:37;100414.44;;;20.89;59.87
13050;BME280;6591;51.446;5.404;2023-08-06T09:53:07;100422.41;;;20.90;60.05
13050;BME280;6591;51.446;5.404;2023-08-06T09:55:35;100430.25;;;20.93;60.09
13050;BME280;6591;51.446;5.404;2023-08-06T09:58:04;100421.84;;;20.96;59.77
13050;BME280;6591;51.446;5.404;2023-08-06T10:00:33;100421.41;;;21.01;60.37
13050;BME280;6591;51.446;5.404;2023-08-06T10:03:07;100432.75;;;21.04;60.06
13050;BME280;6591;51.446;5.404;2023-08-06T10:05:37;100438.41;;;21.11;60.27
13050;BME280;6591;51.446;5.404;2023-08-06T10:08:06;100433.59;;;21.14;60.24
13050;BME280;6591;51.446;5.404;2023-08-06T10:10:35;100433.31;;;21.18;59.99
13050;BME280;6591;51.446;5.404;2023-08-06T10:13:05;100441.81;;;21.23;60.12
13050;BME280;6591;51.446;5.404;2023-08-06T10:15:35;100438.13;;;21.24;60.24
13050;BME280;6591;51.446;5.404;2023-08-06T10:18:06;100435.25;;;21.25;60.32
13050;BME280;6591;51.446;5.404;2023-08-06T10:20:35;100445.06;;;21.26;59.52
13050;BME280;6591;51.446;5.404;2023-08-06T10:23:04;100446.91;;;21.26;59.83
13050;BME280;6591;51.446;5.404;2023-08-06T10:25:35;100444.38;;;21.24;59.80
13050;BME280;6591;51.446;5.404;2023-08-06T10:28:10;100439.84;;;21.25;59.60
13050;BME280;6591;51.446;5.404;2023-08-06T10:30:45;100442.53;;;21.25;59.92
13050;BME280;6591;51.446;5.404;2023-08-06T10:33:14;100449.03;;;21.32;59.72
13050;BME280;6591;51.446;5.404;2023-08-06T10:35:46;100438.09;;;21.33;59.99
13050;BME280;6591;51.446;5.404;2023-08-06T10:38:19;100442.03;;;21.39;60.31
13050;BME280;6591;51.446;5.404;2023-08-06T10:46:03;100447.41;;;21.48;60.29
13050;BME280;6591;51.446;5.404;2023-08-06T10:48:41;100447.81;;;21.53;59.98
13050;BME280;6591;51.446;5.404;2023-08-06T10:51:13;100454.47;;;21.59;60.33
13050;BME280;6591;51.446;5.404;2023-08-06T10:53:47;100453.16;;;21.63;60.16
13050;BME280;6591;51.446;5.404;2023-08-06T10:56:18;100457.25;;;21.67;60.41
13050;BME280;6591;51.446;5.404;2023-08-06T10:58:48;100460.34;;;21.72;60.01
13050;BME280;6591;51.446;5.404;2023-08-06T11:01:18;100463.47;;;21.77;60.09
13050;BME280;6591;51.446;5.404;2023-08-06T11:03:47;100454.34;;;21.78;60.53
13050;BME280;6591;51.446;5.404;2023-08-06T11:06:21;100457.78;;;21.80;60.36
13050;BME280;6591;51.446;5.404;2023-08-06T11:08:55;100463.56;;;21.85;60.50
13050;BME280;6591;51.446;5.404;2023-08-06T11:11:23;100462.13;;;21.91;60.46
13050;BME280;6591;51.446;5.404;2023-08-06T11:13:51;100469.81;;;21.95;60.20
13050;BME280;6591;51.446;5.404;2023-08-06T11:16:22;100459.00;;;21.95;59.87
13050;BME280;6591;51.446;5.404;2023-08-06T11:18:53;100468.50;;;22.00;60.60
13050;BME280;6591;51.446;5.404;2023-08-06T11:21:22;100461.94;;;22.02;60.55
13050;BME280;6591;51.446;5.404;2023-08-06T11:23:51;100475.84;;;22.07;60.48
13050;BME280;6591;51.446;5.404;2023-08-06T11:26:20;100466.56;;;22.10;60.14
13050;BME280;6591;51.446;5.404;2023-08-06T11:28:48;100467.28;;;22.12;60.18
13050;BME280;6591;51.446;5.404;2023-08-06T11:31:22;100470.69;;;22.14;60.47
13050;BME280;6591;51.446;5.404;2023-08-06T11:33:51;100468.38;;;22.19;60.69
13050;BME280;6591;51.446;5.404;2023-08-06T11:36:33;100471.75;;;22.21;60.46
13050;BME280;6591;51.446;5.404;2023-08-06T11:39:02;100469.31;;;22.27;60.61
13050;BME280;6591;51.446;5.404;2023-08-06T11:41:30;100459.72;;;22.33;60.82
13050;BME280;6591;51.446;5.404;2023-08-06T11:43:58;100464.53;;;22.39;60.53
13050;BME280;6591;51.446;5.404;2023-08-06T11:46:26;100461.63;;;22.40;59.95
13050;BME280;6591;51.446;5.404;2023-08-06T11:48:58;100460.78;;;22.40;60.10
13050;BME280;6591;51.446;5.404;2023-08-06T11:51:26;100467.03;;;22.40;60.19
13050;BME280;6591;51.446;5.404;2023-08-06T11:53:58;100466.19;;;22.40;60.18
13050;BME280;6591;51.446;5.404;2023-08-06T11:56:27;100462.81;;;22.38;59.85
13050;BME280;6591;51.446;5.404;2023-08-06T11:58:55;100471.94;;;22.37;60.01
13050;BME280;6591;51.446;5.404;2023-08-06T12:01:22;100476.81;;;22.33;59.79
13050;BME280;6591;51.446;5.404;2023-08-06T12:03:50;100468.97;;;22.30;59.89
13050;BME280;6591;51.446;5.404;2023-08-06T12:06:17;100470.84;;;22.30;60.27
13050;BME280;6591;51.446;5.404;2023-08-06T12:08:44;100475.97;;;22.33;60.17
13050;BME280;6591;51.446;5.404;2023-08-06T12:11:11;100490.88;;;22.37;60.51
13050;BME280;6591;51.446;5.404;2023-08-06T12:13:39;100478.19;;;22.37;59.67
13050;BME280;6591;51.446;5.404;2023-08-06T12:16:06;100495.56;;;22.35;59.26
13050;BME280;6591;51.446;5.404;2023-08-06T12:18:33;100484.38;;;22.30;59.06
13050;BME280;6591;51.446;5.404;2023-08-06T12:21:00;100491.81;;;22.28;59.49
13050;BME280;6591;51.446;5.404;2023-08-06T12:23:28;100495.66;;;22.25;59.42
13050;BME280;6591;51.446;5.404;2023-08-06T12:25:55;100504.75;;;22.24;59.06
13050;BME280;6591;51.446;5.404;2023-08-06T12:28:22;100501.38;;;22.22;59.03
13050;BME280;6591;51.446;5.404;2023-08-06T12:30:50;100495.25;;;22.20;58.80
13050;BME280;6591;51.446;5.404;2023-08-06T12:33:18;100496.97;;;22.21;58.58
13050;BME280;6591;51.446;5.404;2023-08-06T12:35:45;100505.06;;;22.21;59.04
13050;BME280;6591;51.446;5.404;2023-08-06T12:38:13;100505.22;;;22.20;58.85
13050;BME280;6591;51.446;5.404;2023-08-06T12:40:40;100499.53;;;22.23;59.16
13050;BME280;6591;51.446;5.404;2023-08-06T12:43:10;100504.75;;;22.24;59.21
13050;BME280;6591;51.446;5.404;2023-08-06T12:45:37;100513.31;;;22.29;58.79
13050;BME280;6591;51.446;5.404;2023-08-06T12:48:07;100506.72;;;22.32;58.79
13050;BME280;6591;51.446;5.404;2023-08-06T12:50:36;100513.22;;;22.39;58.97
13050;BME280;6591;51.446;5.404;2023-08-06T12:53:03;100510.72;;;22.46;58.84
13050;BME280;6591;51.446;5.404;2023-08-06T12:55:32;100510.81;;;22.54;58.63
13050;BME280;6591;51.446;5.404;2023-08-06T12:57:59;100514.78;;;22.59;58.21
13050;BME280;6591;51.446;5.404;2023-08-06T13:00:27;100508.03;;;22.63;58.77
13050;BME280;6591;51.446;5.404;2023-08-06T13:02:54;100514.25;;;22.73;58.47
13050;BME280;6591;51.446;5.404;2023-08-06T13:05:22;100519.75;;;22.82;58.47
13050;BME280;6591;51.446;5.404;2023-08-06T13:07:49;100510.84;;;22.89;58.65
13050;BME280;6591;51.446;5.404;2023-08-06T13:10:17;100518.19;;;22.97;58.42
13050;BME280;6591;51.446;5.404;2023-08-06T13:12:45;100522.66;;;23.06;58.68
13050;BME280;6591;51.446;5.404;2023-08-06T13:15:12;100517.28;;;23.14;58.65
13050;BME280;6591;51.446;5.404;2023-08-06T13:17:41;100523.63;;;23.22;58.27
13050;BME280;6591;51.446;5.404;2023-08-06T13:20:09;100520.28;;;23.29;58.44